Time;durP1;ratioP1;P1;durP2;ratioP2;P2;SDS_P1;SDS_P2;PMS_P1;PMS_P2;Temp;Humidity;BMP_temperature;BMP_pressure;BME280_temperature;BME280_humidity;BME280_pressure;Samples;Min_cycle;Max_cycle;Signal;HPM_P1;HPM_P2
2024/03/30 00:00:59;;;;;;;60.97;6.37;;;;;;;;;;5050399;28;20449;-67
2024/03/30 00:03:26;;;;;;;61.57;6.47;;;;;;;;;;5050834;28;20510;-68
2024/03/30 00:05:59;;;;;;;67.67;6.57;;;;;;;;;;5050947;28;20888;-67
2024/03/30 00:08:26;;;;;;;60.07;5.77;;;;;;;;;;5050670;28;20508;-67
2024/03/30 00:10:58;;;;;;;61.97;6.23;;;;;;;;;;5050464;28;20450;-67
2024/03/30 00:13:26;;;;;;;59.70;6.80;;;;;;;;;;5050654;28;20445;-67
2024/03/30 00:15:52;;;;;;;60.63;6.50;;;;;;;;;;5051053;28;20459;-67
2024/03/30 00:18:19;;;;;;;60.20;7.00;;;;;;;;;;5053668;28;20971;-67
2024/03/30 00:20:45;;;;;;;59.13;6.37;;;;;;;;;;5054115;28;20527;-67
2024/03/30 00:23:12;;;;;;;64.70;6.13;;;;;;;;;;5054350;28;20476;-67
2024/03/30 00:25:38;;;;;;;59.90;6.27;;;;;;;;;;5054419;28;20449;-67
2024/03/30 00:28:07;;;;;;;62.23;7.37;;;;;;;;;;5054224;28;20556;-67
2024/03/30 00:30:37;;;;;;;59.00;6.10;;;;;;;;;;5074216;28;20436;-67
2024/03/30 00:33:05;;;;;;;60.43;6.80;;;;;;;;;;5074129;28;20439;-67
2024/03/30 00:35:31;;;;;;;62.80;6.80;;;;;;;;;;5074046;28;20481;-67
2024/03/30 00:37:58;;;;;;;59.40;6.77;;;;;;;;;;5074099;28;20464;-67
2024/03/30 00:40:24;;;;;;;59.90;5.87;;;;;;;;;;5073724;28;20444;-67
2024/03/30 00:42:51;;;;;;;65.57;6.90;;;;;;;;;;5059833;28;20493;-67
2024/03/30 00:45:19;;;;;;;66.80;7.37;;;;;;;;;;5053989;28;20460;-67
2024/03/30 00:47:46;;;;;;;60.63;6.70;;;;;;;;;;5054120;28;20499;-67
2024/03/30 00:50:12;;;;;;;61.30;6.70;;;;;;;;;;5053596;28;20441;-67
2024/03/30 00:52:39;;;;;;;64.53;6.00;;;;;;;;;;5066484;28;20487;-67
2024/03/30 00:55:05;;;;;;;61.47;6.40;;;;;;;;;;5073805;28;20951;-67
2024/03/30 00:57:32;;;;;;;60.73;7.47;;;;;;;;;;5073809;28;21014;-67
2024/03/30 00:59:58;;;;;;;62.50;7.60;;;;;;;;;;5073388;28;20488;-67
2024/03/30 01:02:27;;;;;;;60.87;7.00;;;;;;;;;;5073533;28;20448;-66
2024/03/30 01:04:53;;;;;;;60.07;6.70;;;;;;;;;;5073982;28;20448;-67
2024/03/30 01:07:20;;;;;;;62.40;7.00;;;;;;;;;;5073722;28;20558;-67
2024/03/30 01:09:46;;;;;;;61.57;7.03;;;;;;;;;;5073166;28;20451;-67
2024/03/30 01:12:13;;;;;;;62.30;7.57;;;;;;;;;;5073638;28;20875;-67
2024/03/30 01:14:40;;;;;;;63.27;7.40;;;;;;;;;;5073665;28;20451;-67
2024/03/30 01:17:08;;;;;;;59.10;5.90;;;;;;;;;;5073452;28;20468;-67
2024/03/30 01:19:36;;;;;;;60.37;7.03;;;;;;;;;;5064877;28;20480;-67
2024/03/30 01:22:03;;;;;;;61.33;6.63;;;;;;;;;;5073267;28;20455;-67
2024/03/30 01:24:29;;;;;;;60.00;6.00;;;;;;;;;;5073115;28;20540;-67
2024/03/30 01:26:58;;;;;;;60.23;7.13;;;;;;;;;;5073582;28;20451;-67
2024/03/30 01:29:25;;;;;;;62.97;7.07;;;;;;;;;;5072599;28;20466;-67
2024/03/30 01:31:52;;;;;;;61.27;6.83;;;;;;;;;;5073242;28;20893;-67
2024/03/30 01:34:19;;;;;;;61.27;6.93;;;;;;;;;;5073181;28;20462;-68
2024/03/30 01:36:47;;;;;;;69.90;6.70;;;;;;;;;;5060177;28;20476;-67
2024/03/30 01:39:13;;;;;;;62.13;6.90;;;;;;;;;;5052570;28;20495;-67
2024/03/30 01:41:40;;;;;;;61.13;6.87;;;;;;;;;;5057190;28;20454;-67
2024/03/30 01:44:06;;;;;;;60.20;6.47;;;;;;;;;;5073454;28;20458;-67
2024/03/30 01:46:34;;;;;;;62.30;6.77;;;;;;;;;;5072974;28;20486;-67
2024/03/30 01:49:00;;;;;;;62.70;7.97;;;;;;;;;;5072553;28;20547;-67
2024/03/30 01:51:27;;;;;;;65.10;8.13;;;;;;;;;;5072538;28;20540;-67
2024/03/30 01:53:55;;;;;;;62.63;5.97;;;;;;;;;;5072778;28;20929;-67
2024/03/30 01:56:22;;;;;;;63.80;7.13;;;;;;;;;;5072806;28;20463;-67
2024/03/30 01:58:49;;;;;;;61.27;6.93;;;;;;;;;;5072192;28;20492;-67
2024/03/30 02:01:17;;;;;;;71.10;7.50;;;;;;;;;;5072546;28;20470;-67
2024/03/30 02:03:43;;;;;;;70.37;6.90;;;;;;;;;;5072895;28;20444;-67
2024/03/30 02:06:11;;;;;;;60.27;6.33;;;;;;;;;;5072954;28;20448;-67
2024/03/30 02:08:38;;;;;;;60.30;6.70;;;;;;;;;;5064407;28;20468;-67
2024/03/30 02:11:08;;;;;;;61.43;7.20;;;;;;;;;;5072149;28;20532;-67
2024/03/30 02:13:34;;;;;;;62.60;7.10;;;;;;;;;;5072351;28;20454;-67
2024/03/30 02:16:01;;;;;;;63.00;7.60;;;;;;;;;;5072493;28;20448;-67
2024/03/30 02:18:27;;;;;;;61.07;6.60;;;;;;;;;;5072003;28;20766;-67
2024/03/30 02:20:54;;;;;;;60.97;7.67;;;;;;;;;;5072035;28;20467;-67
2024/03/30 02:23:22;;;;;;;65.00;6.97;;;;;;;;;;5070049;28;20451;-67
2024/03/30 02:25:49;;;;;;;61.47;7.20;;;;;;;;;;5072177;28;20932;-68
2024/03/30 02:28:15;;;;;;;61.23;6.63;;;;;;;;;;5054890;28;20475;-67
2024/03/30 02:30:43;;;;;;;62.70;6.27;;;;;;;;;;5064274;28;20501;-67
2024/03/30 02:33:10;;;;;;;62.23;7.80;;;;;;;;;;5071862;28;20448;-67
2024/03/30 02:35:37;;;;;;;62.30;7.60;;;;;;;;;;5071752;28;20549;-67
2024/03/30 02:38:04;;;;;;;62.43;7.33;;;;;;;;;;5071904;28;20479;-67
2024/03/30 02:40:33;;;;;;;63.00;8.03;;;;;;;;;;5070600;28;20846;-67
2024/03/30 02:42:59;;;;;;;65.20;7.00;;;;;;;;;;5065305;28;20822;-67
2024/03/30 02:45:26;;;;;;;61.80;7.50;;;;;;;;;;5061562;28;20444;-66
2024/03/30 02:47:52;;;;;;;66.37;7.90;;;;;;;;;;5071797;28;20475;-66
2024/03/30 02:50:19;;;;;;;61.07;6.37;;;;;;;;;;5071095;28;20538;-67
2024/03/30 02:52:45;;;;;;;62.73;7.23;;;;;;;;;;5071626;28;20450;-67
2024/03/30 02:55:13;;;;;;;65.23;7.23;;;;;;;;;;5071503;28;20920;-67
2024/03/30 02:57:40;;;;;;;62.57;7.33;;;;;;;;;;5071541;28;20463;-67
2024/03/30 03:00:09;;;;;;;59.73;5.93;;;;;;;;;;5071207;28;20511;-67
2024/03/30 03:02:35;;;;;;;63.57;7.40;;;;;;;;;;5071341;28;20925;-67
2024/03/30 03:05:03;;;;;;;65.13;7.50;;;;;;;;;;5071335;28;20448;-67
2024/03/30 03:07:29;;;;;;;60.70;7.20;;;;;;;;;;5071242;28;20470;-67
2024/03/30 03:09:56;;;;;;;63.07;6.33;;;;;;;;;;5071072;28;20551;-67
2024/03/30 03:12:22;;;;;;;62.23;6.83;;;;;;;;;;5071421;28;20448;-67
2024/03/30 03:14:51;;;;;;;60.43;5.83;;;;;;;;;;5071505;28;20475;-67
2024/03/30 03:17:17;;;;;;;62.00;6.90;;;;;;;;;;5071111;28;20948;-67
2024/03/30 03:19:44;;;;;;;62.97;7.53;;;;;;;;;;5070817;28;20579;-67
2024/03/30 03:22:10;;;;;;;64.90;6.93;;;;;;;;;;5071145;28;20806;-67
2024/03/30 03:24:38;;;;;;;68.40;8.03;;;;;;;;;;5070726;28;20987;-67
2024/03/30 03:27:04;;;;;;;65.83;7.20;;;;;;;;;;5071378;28;20454;-67
2024/03/30 03:29:31;;;;;;;62.40;7.40;;;;;;;;;;5070652;28;20495;-67
2024/03/30 03:31:59;;;;;;;68.97;8.80;;;;;;;;;;5070992;28;20456;-66
2024/03/30 03:34:26;;;;;;;69.77;7.67;;;;;;;;;;5071119;28;20499;-66
2024/03/30 03:36:52;;;;;;;66.47;8.97;;;;;;;;;;5071142;28;20451;-66
2024/03/30 03:39:20;;;;;;;70.47;9.17;;;;;;;;;;5070416;28;20484;-67
2024/03/30 03:41:46;;;;;;;61.17;7.43;;;;;;;;;;5070921;28;20459;-67
2024/03/30 03:44:13;;;;;;;65.13;8.17;;;;;;;;;;5071251;28;20448;-67
2024/03/30 03:46:39;;;;;;;66.47;7.87;;;;;;;;;;5067837;28;21038;-67
2024/03/30 03:49:07;;;;;;;61.20;6.83;;;;;;;;;;5050455;28;20465;-67
2024/03/30 03:51:34;;;;;;;63.20;6.37;;;;;;;;;;5052575;28;20929;-67
2024/03/30 03:54:01;;;;;;;70.20;6.90;;;;;;;;;;5055253;28;20444;-67
2024/03/30 03:56:27;;;;;;;67.50;7.50;;;;;;;;;;5055139;28;20455;-68
2024/03/30 03:58:54;;;;;;;74.87;9.00;;;;;;;;;;5054566;28;20856;-67
2024/03/30 04:01:20;;;;;;;66.30;7.57;;;;;;;;;;5055010;28;20454;-67
2024/03/30 04:03:47;;;;;;;65.10;7.20;;;;;;;;;;5055003;28;20448;-67
2024/03/30 04:06:15;;;;;;;74.30;9.60;;;;;;;;;;5054937;28;20444;-67
2024/03/30 04:08:42;;;;;;;68.27;8.50;;;;;;;;;;5066456;28;20489;-67
2024/03/30 04:11:08;;;;;;;69.20;9.63;;;;;;;;;;5074791;28;20451;-67
2024/03/30 04:13:35;;;;;;;68.03;11.07;;;;;;;;;;5074657;28;20448;-65
2024/03/30 04:16:02;;;;;;;65.93;9.60;;;;;;;;;;5074680;28;20920;-68
2024/03/30 04:18:29;;;;;;;69.83;8.30;;;;;;;;;;5074505;28;20475;-68
2024/03/30 04:20:58;;;;;;;66.23;8.03;;;;;;;;;;5073887;28;21006;-67
2024/03/30 04:23:29;;;;;;;70.90;8.03;;;;;;;;;;5074408;28;20453;-67
2024/03/30 04:26:02;;;;;;;76.20;8.17;;;;;;;;;;5074905;28;20440;-67
2024/03/30 04:28:29;;;;;;;68.43;6.90;;;;;;;;;;5074264;28;20472;-67
2024/03/30 04:30:55;;;;;;;68.03;7.57;;;;;;;;;;5073846;28;20440;-67
2024/03/30 04:33:23;;;;;;;76.40;6.90;;;;;;;;;;5073954;28;20618;-67
2024/03/30 04:35:52;;;;;;;70.63;6.70;;;;;;;;;;5074200;28;20455;-67
2024/03/30 04:38:20;;;;;;;73.87;7.70;;;;;;;;;;5074132;28;20468;-67
2024/03/30 04:40:56;;;;;;;67.23;7.27;;;;;;;;;;5065542;28;21027;-67
2024/03/30 04:43:22;;;;;;;69.37;6.93;;;;;;;;;;5074035;28;20451;-67
2024/03/30 04:45:49;;;;;;;69.50;6.10;;;;;;;;;;5074428;28;20444;-67
2024/03/30 04:48:15;;;;;;;75.63;6.63;;;;;;;;;;5074172;28;20479;-67
2024/03/30 04:50:42;;;;;;;66.23;6.77;;;;;;;;;;5073711;28;20871;-67
2024/03/30 04:53:09;;;;;;;72.73;5.93;;;;;;;;;;5073961;28;20467;-67
2024/03/30 04:55:36;;;;;;;69.50;6.77;;;;;;;;;;5074072;28;20528;-68
2024/03/30 04:58:04;;;;;;;69.30;8.23;;;;;;;;;;5073902;28;20464;-67
2024/03/30 05:00:31;;;;;;;66.07;6.63;;;;;;;;;;5073091;28;20476;-68
2024/03/30 05:02:57;;;;;;;78.47;7.77;;;;;;;;;;5073092;28;20444;-68
2024/03/30 05:05:24;;;;;;;69.10;6.23;;;;;;;;;;5064966;28;20449;-68
2024/03/30 05:07:50;;;;;;;71.57;7.93;;;;;;;;;;5054011;28;20490;-67
2024/03/30 05:10:17;;;;;;;68.73;6.30;;;;;;;;;;5053343;28;20447;-68
2024/03/30 05:12:43;;;;;;;66.90;6.20;;;;;;;;;;5053523;28;21039;-68
2024/03/30 05:15:12;;;;;;;68.33;6.00;;;;;;;;;;5053668;28;20454;-66
2024/03/30 05:17:38;;;;;;;65.57;5.50;;;;;;;;;;5055795;28;20479;-66
2024/03/30 05:22:51;;;;;;;64.60;6.17;;;;;;;;;;5073527;28;20867;-66
2024/03/30 05:25:18;;;;;;;75.90;6.80;;;;;;;;;;5073353;28;20516;-66
2024/03/30 05:27:44;;;;;;;73.13;6.97;;;;;;;;;;5073832;28;20456;-67
2024/03/30 05:30:14;;;;;;;67.57;7.37;;;;;;;;;;5073297;28;20805;-67
2024/03/30 05:32:40;;;;;;;69.10;7.30;;;;;;;;;;5073049;28;20447;-67
2024/03/30 05:35:07;;;;;;;70.13;6.90;;;;;;;;;;5073113;28;20460;-66
2024/03/30 05:37:33;;;;;;;71.13;7.00;;;;;;;;;;5073568;28;20464;-66
2024/03/30 05:40:00;;;;;;;68.23;7.87;;;;;;;;;;5072541;28;20533;-67
2024/03/30 05:42:26;;;;;;;73.07;7.57;;;;;;;;;;5072891;28;20454;-67
2024/03/30 05:44:53;;;;;;;69.67;5.67;;;;;;;;;;5073249;28;20450;-67
2024/03/30 05:47:21;;;;;;;80.33;6.80;;;;;;;;;;5072999;28;20832;-67
2024/03/30 05:49:48;;;;;;;69.67;6.53;;;;;;;;;;5072486;28;20936;-67
2024/03/30 05:52:14;;;;;;;66.40;5.70;;;;;;;;;;5072761;28;20452;-67
2024/03/30 05:54:41;;;;;;;64.40;6.13;;;;;;;;;;5072627;28;20880;-67
2024/03/30 05:57:07;;;;;;;68.70;7.00;;;;;;;;;;5072968;28;20824;-67
2024/03/30 05:59:34;;;;;;;80.87;6.27;;;;;;;;;;5072317;28;20662;-67
2024/03/30 06:02:00;;;;;;;74.07;6.50;;;;;;;;;;5072840;28;20836;-67
2024/03/30 06:04:29;;;;;;;69.40;6.53;;;;;;;;;;5072753;28;20550;-67
2024/03/30 06:06:55;;;;;;;67.13;6.00;;;;;;;;;;5072612;28;20451;-67
2024/03/30 06:09:22;;;;;;;72.07;6.83;;;;;;;;;;5071856;28;20478;-67
2024/03/30 06:11:48;;;;;;;69.73;6.90;;;;;;;;;;5072159;28;20470;-67
2024/03/30 06:14:15;;;;;;;72.27;7.23;;;;;;;;;;5071725;28;20895;-67
2024/03/30 06:16:42;;;;;;;65.47;7.00;;;;;;;;;;5053404;28;20519;-67
2024/03/30 06:19:09;;;;;;;64.20;5.87;;;;;;;;;;5051766;28;20477;-67
2024/03/30 06:21:38;;;;;;;66.40;6.10;;;;;;;;;;5052034;28;20936;-67
2024/03/30 06:24:04;;;;;;;68.70;6.73;;;;;;;;;;5052396;28;20456;-67
2024/03/30 06:26:31;;;;;;;60.40;5.47;;;;;;;;;;5052394;28;20479;-67
2024/03/30 06:28:57;;;;;;;65.77;8.23;;;;;;;;;;5051721;28;20468;-67
2024/03/30 06:31:25;;;;;;;71.73;6.80;;;;;;;;;;5051972;28;20451;-67
2024/03/30 06:33:51;;;;;;;72.40;7.27;;;;;;;;;;5064173;28;20484;-67
2024/03/30 06:36:18;;;;;;;75.17;6.90;;;;;;;;;;5056307;28;20441;-67
2024/03/30 06:38:46;;;;;;;72.63;6.27;;;;;;;;;;5054778;28;21500;-67
2024/03/30 06:43:58;;;;;;;67.70;5.27;;;;;;;;;;5071765;28;20419;-67
2024/03/30 06:46:25;;;;;;;75.20;6.90;;;;;;;;;;5071807;28;20940;-67
2024/03/30 06:48:52;;;;;;;75.23;6.03;;;;;;;;;;5071361;28;20474;-67
2024/03/30 06:51:18;;;;;;;68.90;5.47;;;;;;;;;;5064907;28;20472;-67
2024/03/30 06:53:46;;;;;;;70.37;6.93;;;;;;;;;;5051553;28;20532;-67
2024/03/30 06:56:13;;;;;;;72.53;6.40;;;;;;;;;;5051754;28;20449;-67
2024/03/30 06:58:41;;;;;;;73.93;6.93;;;;;;;;;;5061772;28;20464;-67
2024/03/30 07:01:08;;;;;;;68.63;7.00;;;;;;;;;;5070913;28;20494;-67
2024/03/30 07:03:36;;;;;;;67.30;6.00;;;;;;;;;;5071513;28;20454;-66
2024/03/30 07:06:02;;;;;;;71.27;6.33;;;;;;;;;;5071791;28;20466;-67
2024/03/30 07:08:29;;;;;;;76.13;7.83;;;;;;;;;;5071228;28;21045;-67
2024/03/30 07:10:55;;;;;;;67.90;5.70;;;;;;;;;;5071063;28;20440;-67
2024/03/30 07:13:23;;;;;;;65.70;5.20;;;;;;;;;;5071422;28;20912;-67
2024/03/30 07:15:50;;;;;;;76.83;6.87;;;;;;;;;;5071206;28;20440;-68
2024/03/30 07:18:18;;;;;;;67.57;6.00;;;;;;;;;;5071523;28;20494;-67
2024/03/30 07:20:44;;;;;;;70.80;6.10;;;;;;;;;;5070838;28;20491;-67
2024/03/30 07:23:11;;;;;;;67.40;5.77;;;;;;;;;;5071243;28;20443;-67
2024/03/30 07:25:37;;;;;;;71.13;6.87;;;;;;;;;;5070900;28;20817;-67
2024/03/30 07:28:05;;;;;;;75.53;6.53;;;;;;;;;;5071284;28;20471;-68
2024/03/30 07:30:36;;;;;;;71.40;6.03;;;;;;;;;;5054101;28;20449;-68
2024/03/30 07:33:05;;;;;;;63.40;5.43;;;;;;;;;;5071346;28;20456;-68
2024/03/30 07:35:31;;;;;;;67.50;5.50;;;;;;;;;;5062200;28;20479;-67
2024/03/30 07:38:00;;;;;;;73.77;7.53;;;;;;;;;;5051211;28;20496;-68
2024/03/30 07:40:26;;;;;;;71.17;6.30;;;;;;;;;;5066973;28;20492;-68
2024/03/30 07:42:53;;;;;;;65.27;5.80;;;;;;;;;;5070801;28;20444;-68
2024/03/30 07:45:19;;;;;;;66.77;5.97;;;;;;;;;;5071461;28;20448;-68
2024/03/30 07:47:48;;;;;;;68.13;6.10;;;;;;;;;;5071397;28;20518;-68
2024/03/30 07:50:14;;;;;;;67.00;5.30;;;;;;;;;;5071037;28;20448;-68
2024/03/30 07:52:44;;;;;;;82.03;6.17;;;;;;;;;;5070934;28;20452;-68
2024/03/30 07:55:10;;;;;;;67.13;5.17;;;;;;;;;;5071028;28;20939;-69
2024/03/30 07:57:37;;;;;;;81.13;7.83;;;;;;;;;;5070669;28;20877;-68
2024/03/30 08:00:03;;;;;;;74.73;6.00;;;;;;;;;;5070719;28;20487;-68
2024/03/30 08:02:30;;;;;;;88.50;6.47;;;;;;;;;;5070551;28;20447;-68
2024/03/30 08:04:58;;;;;;;72.53;6.73;;;;;;;;;;5070807;28;20940;-68
2024/03/30 08:07:25;;;;;;;77.10;5.50;;;;;;;;;;5062301;28;20499;-68
2024/03/30 08:09:51;;;;;;;84.53;6.60;;;;;;;;;;5070206;28;20448;-68
2024/03/30 08:12:18;;;;;;;90.63;6.20;;;;;;;;;;5070956;28;20444;-66
2024/03/30 08:14:44;;;;;;;76.10;6.10;;;;;;;;;;5070661;28;20983;-66
2024/03/30 08:17:11;;;;;;;72.53;6.40;;;;;;;;;;5056661;28;20456;-68
2024/03/30 08:19:37;;;;;;;71.93;6.00;;;;;;;;;;5050106;28;20449;-67
2024/03/30 08:22:06;;;;;;;85.33;6.33;;;;;;;;;;5050520;28;20945;-68
2024/03/30 08:24:32;;;;;;;71.87;5.40;;;;;;;;;;5050218;28;20459;-67
2024/03/30 08:26:59;;;;;;;70.20;5.37;;;;;;;;;;5051036;28;20537;-67
2024/03/30 08:29:26;;;;;;;85.10;8.07;;;;;;;;;;5050216;28;20921;-67
2024/03/30 08:31:53;;;;;;;69.93;5.70;;;;;;;;;;5050267;28;20930;-67
2024/03/30 08:34:19;;;;;;;80.73;5.90;;;;;;;;;;5050474;28;20467;-67
2024/03/30 08:36:46;;;;;;;74.50;5.90;;;;;;;;;;5050473;28;21012;-68
2024/03/30 08:39:13;;;;;;;74.50;6.53;;;;;;;;;;5052797;28;20467;-67
2024/03/30 08:41:40;;;;;;;70.80;5.80;;;;;;;;;;5053981;28;20476;-67
2024/03/30 08:44:06;;;;;;;76.47;5.93;;;;;;;;;;5054285;28;20536;-67
2024/03/30 08:46:34;;;;;;;73.93;6.10;;;;;;;;;;5054160;28;20869;-67
2024/03/30 08:49:03;;;;;;;69.93;4.87;;;;;;;;;;5053707;28;20842;-67
2024/03/30 08:51:30;;;;;;;66.20;5.10;;;;;;;;;;5053693;28;20444;-67
2024/03/30 08:54:00;;;;;;;75.07;6.13;;;;;;;;;;5054141;28;20456;-67
2024/03/30 08:56:28;;;;;;;73.30;6.30;;;;;;;;;;5053889;28;20456;-67
2024/03/30 08:58:54;;;;;;;76.20;7.07;;;;;;;;;;5056759;28;20476;-67
2024/03/30 09:01:21;;;;;;;69.97;6.80;;;;;;;;;;5073737;28;21005;-67
2024/03/30 09:03:47;;;;;;;75.13;6.77;;;;;;;;;;5073644;28;20478;-67
2024/03/30 09:06:15;;;;;;;68.20;5.60;;;;;;;;;;5073680;28;20887;-67
2024/03/30 09:08:41;;;;;;;71.70;5.80;;;;;;;;;;5073790;28;20837;-67
2024/03/30 09:11:09;;;;;;;76.70;6.43;;;;;;;;;;5073419;28;20452;-67
2024/03/30 09:13:36;;;;;;;85.97;6.87;;;;;;;;;;5073420;28;20509;-67
2024/03/30 09:16:03;;;;;;;70.97;6.63;;;;;;;;;;5073704;28;20505;-68
2024/03/30 09:18:29;;;;;;;77.30;6.67;;;;;;;;;;5073472;28;20474;-68
2024/03/30 09:20:58;;;;;;;71.13;5.90;;;;;;;;;;5072792;28;20942;-68
2024/03/30 09:23:24;;;;;;;72.70;6.60;;;;;;;;;;5073462;28;20932;-68
2024/03/30 09:25:51;;;;;;;69.30;5.70;;;;;;;;;;5073409;28;20816;-68
2024/03/30 09:28:18;;;;;;;68.50;6.47;;;;;;;;;;5073391;28;20527;-69
2024/03/30 09:30:46;;;;;;;77.40;6.43;;;;;;;;;;5072836;28;20526;-68
2024/03/30 09:33:12;;;;;;;77.57;7.40;;;;;;;;;;5059509;28;20459;-68
2024/03/30 09:35:39;;;;;;;79.77;7.50;;;;;;;;;;5052998;28;20456;-68
2024/03/30 09:38:05;;;;;;;72.33;6.20;;;;;;;;;;5053285;28;20468;-67
2024/03/30 09:40:33;;;;;;;71.87;6.13;;;;;;;;;;5052657;28;20916;-67
2024/03/30 09:43:00;;;;;;;78.17;6.03;;;;;;;;;;5052969;28;20448;-67
2024/03/30 09:45:28;;;;;;;75.40;6.50;;;;;;;;;;5068482;28;20546;-67
2024/03/30 09:47:57;;;;;;;73.77;6.33;;;;;;;;;;5072714;28;20478;-67
2024/03/30 09:50:24;;;;;;;71.50;6.40;;;;;;;;;;5072252;28;20448;-67
2024/03/30 09:52:51;;;;;;;78.33;6.53;;;;;;;;;;5072602;28;20451;-67
2024/03/30 09:55:19;;;;;;;71.03;6.63;;;;;;;;;;5072794;28;21026;-67
2024/03/30 09:57:48;;;;;;;63.87;5.27;;;;;;;;;;5072726;28;20479;-67
2024/03/30 10:00:15;;;;;;;76.67;6.40;;;;;;;;;;5072264;28;20572;-67
2024/03/30 10:02:42;;;;;;;77.63;6.70;;;;;;;;;;5072330;28;20960;-67
2024/03/30 10:05:10;;;;;;;69.03;5.40;;;;;;;;;;5072500;28;20538;-67
2024/03/30 10:07:37;;;;;;;66.10;6.57;;;;;;;;;;5072492;28;20463;-67
2024/03/30 10:10:08;;;;;;;69.33;7.13;;;;;;;;;;5072226;28;20444;-67
2024/03/30 10:12:38;;;;;;;66.57;5.90;;;;;;;;;;5072340;28;20470;-67
2024/03/30 10:15:06;;;;;;;64.87;6.83;;;;;;;;;;5072249;28;20534;-67
2024/03/30 10:17:33;;;;;;;76.40;8.40;;;;;;;;;;5072361;28;20468;-67
2024/03/30 10:20:00;;;;;;;76.57;9.60;;;;;;;;;;5071697;28;20472;-67
2024/03/30 10:22:28;;;;;;;76.73;8.80;;;;;;;;;;5072352;28;20454;-67
2024/03/30 10:24:56;;;;;;;78.10;7.50;;;;;;;;;;5072177;28;20459;-67
2024/03/30 10:27:22;;;;;;;74.33;9.60;;;;;;;;;;5072198;28;20450;-67
2024/03/30 10:29:49;;;;;;;78.10;8.67;;;;;;;;;;5071875;28;20539;-67
2024/03/30 10:32:15;;;;;;;66.33;7.47;;;;;;;;;;5072342;28;20455;-67
2024/03/30 10:34:42;;;;;;;84.70;9.77;;;;;;;;;;5071957;28;20539;-67
2024/03/30 10:37:08;;;;;;;70.50;7.87;;;;;;;;;;5072067;28;20458;-67
2024/03/30 10:39:37;;;;;;;75.67;8.33;;;;;;;;;;5071694;28;20512;-67
2024/03/30 10:42:03;;;;;;;67.10;8.23;;;;;;;;;;5071702;28;20551;-67
2024/03/30 10:44:30;;;;;;;70.03;8.10;;;;;;;;;;5071781;28;20535;-67
2024/03/30 10:46:57;;;;;;;72.77;8.43;;;;;;;;;;5072074;28;20454;-67
2024/03/30 10:49:25;;;;;;;71.60;9.60;;;;;;;;;;5071340;28;20467;-67
2024/03/30 10:51:52;;;;;;;73.67;7.90;;;;;;;;;;5071478;28;20440;-67
2024/03/30 10:54:20;;;;;;;77.83;8.43;;;;;;;;;;5066022;28;20455;-68
2024/03/30 10:56:48;;;;;;;77.17;8.80;;;;;;;;;;5060961;28;20502;-68
2024/03/30 10:59:16;;;;;;;71.30;8.33;;;;;;;;;;5071124;28;20559;-68
2024/03/30 11:01:43;;;;;;;73.03;7.87;;;;;;;;;;5070894;28;20492;-67
2024/03/30 11:04:13;;;;;;;79.17;8.23;;;;;;;;;;5071640;28;20470;-68
2024/03/30 11:06:39;;;;;;;74.00;8.10;;;;;;;;;;5071422;28;20448;-68
2024/03/30 11:09:07;;;;;;;69.27;8.27;;;;;;;;;;5070897;28;20517;-68
2024/03/30 11:11:34;;;;;;;69.70;7.50;;;;;;;;;;5071599;28;20813;-68
2024/03/30 11:14:02;;;;;;;72.27;8.00;;;;;;;;;;5071438;28;20440;-68
2024/03/30 11:16:30;;;;;;;76.10;9.30;;;;;;;;;;5071532;28;20527;-68
2024/03/30 11:19:04;;;;;;;75.10;8.87;;;;;;;;;;5071004;28;20550;-67
2024/03/30 11:21:33;;;;;;;74.73;8.70;;;;;;;;;;5071159;28;21068;-67
2024/03/30 11:24:03;;;;;;;79.00;8.67;;;;;;;;;;5071086;28;20456;-68
2024/03/30 11:26:32;;;;;;;69.63;7.50;;;;;;;;;;5071423;28;20454;-68
2024/03/30 11:29:03;;;;;;;71.40;7.13;;;;;;;;;;5062348;28;20992;-68
2024/03/30 11:31:38;;;;;;;72.30;7.90;;;;;;;;;;5071125;28;20436;-68
2024/03/30 11:34:06;;;;;;;72.97;7.87;;;;;;;;;;5062768;28;20878;-67
2024/03/30 11:36:35;;;;;;;69.77;7.80;;;;;;;;;;5071082;28;20443;-68
2024/03/30 11:39:07;;;;;;;75.83;7.03;;;;;;;;;;5051302;28;20472;-68
2024/03/30 11:41:33;;;;;;;92.50;7.60;;;;;;;;;;5050846;28;20486;-68
2024/03/30 11:44:08;;;;;;;80.83;7.37;;;;;;;;;;5050851;28;20475;-68
2024/03/30 11:46:36;;;;;;;72.20;7.37;;;;;;;;;;5050937;28;20456;-68
2024/03/30 11:49:04;;;;;;;73.10;7.00;;;;;;;;;;5050562;28;20468;-68
2024/03/30 11:51:30;;;;;;;78.80;8.87;;;;;;;;;;5051096;28;20525;-68
2024/03/30 11:53:57;;;;;;;71.83;7.00;;;;;;;;;;5051031;28;20444;-68
2024/03/30 11:56:32;;;;;;;77.27;7.50;;;;;;;;;;5051040;28;20453;-68
2024/03/30 11:59:01;;;;;;;74.13;8.47;;;;;;;;;;5052866;28;20472;-68
2024/03/30 12:01:28;;;;;;;77.93;9.27;;;;;;;;;;5070845;28;20844;-68
2024/03/30 12:03:58;;;;;;;84.70;10.07;;;;;;;;;;5071068;28;20451;-68
2024/03/30 12:06:26;;;;;;;81.57;9.73;;;;;;;;;;5071505;28;20440;-68
2024/03/30 12:08:54;;;;;;;79.47;8.80;;;;;;;;;;5070308;28;20474;-68
2024/03/30 12:11:20;;;;;;;82.70;8.57;;;;;;;;;;5070913;28;20447;-68
2024/03/30 12:13:47;;;;;;;74.23;8.33;;;;;;;;;;5074836;28;20538;-68
2024/03/30 12:16:13;;;;;;;81.77;8.90;;;;;;;;;;5074639;28;20546;-68
2024/03/30 12:18:40;;;;;;;71.27;8.90;;;;;;;;;;5074694;28;20467;-68
2024/03/30 12:21:08;;;;;;;79.50;10.57;;;;;;;;;;5062823;28;20853;-68
2024/03/30 12:23:36;;;;;;;80.90;9.10;;;;;;;;;;5054534;28;20738;-68
2024/03/30 12:26:03;;;;;;;75.60;9.47;;;;;;;;;;5062950;28;20455;-68
2024/03/30 12:28:32;;;;;;;85.67;9.30;;;;;;;;;;5054588;28;20472;-68
2024/03/30 12:30:58;;;;;;;79.93;10.30;;;;;;;;;;5053793;28;20535;-68
2024/03/30 12:33:26;;;;;;;86.80;11.13;;;;;;;;;;5054161;28;20832;-67
2024/03/30 12:35:52;;;;;;;75.80;10.53;;;;;;;;;;5054433;28;20451;-68
2024/03/30 12:38:21;;;;;;;70.80;9.37;;;;;;;;;;5054313;28;20625;-67
2024/03/30 12:40:47;;;;;;;74.77;9.30;;;;;;;;;;5054144;28;20555;-67
2024/03/30 12:43:14;;;;;;;81.17;9.10;;;;;;;;;;5054030;28;20453;-67
2024/03/30 12:45:41;;;;;;;79.10;9.90;;;;;;;;;;5054372;28;20448;-67
2024/03/30 12:48:10;;;;;;;79.67;9.13;;;;;;;;;;5054266;28;20472;-67
2024/03/30 12:50:36;;;;;;;76.07;7.97;;;;;;;;;;5053616;28;20453;-67
2024/03/30 12:53:04;;;;;;;74.60;8.97;;;;;;;;;;5056382;28;20949;-68
2024/03/30 12:55:31;;;;;;;83.33;9.33;;;;;;;;;;5073772;28;20448;-68
2024/03/30 12:57:58;;;;;;;78.23;8.87;;;;;;;;;;5074036;28;20498;-68
2024/03/30 13:00:25;;;;;;;75.80;8.37;;;;;;;;;;5073501;28;20458;-68
2024/03/30 13:02:55;;;;;;;81.70;7.70;;;;;;;;;;5073683;28;20450;-68
2024/03/30 13:05:22;;;;;;;69.73;7.80;;;;;;;;;;5073747;28;20488;-67
2024/03/30 13:07:49;;;;;;;71.03;7.13;;;;;;;;;;5073670;28;20961;-67
2024/03/30 13:10:15;;;;;;;80.23;7.10;;;;;;;;;;5073520;28;20447;-67
2024/03/30 13:12:44;;;;;;;76.27;7.60;;;;;;;;;;5073653;28;20869;-67
2024/03/30 13:15:11;;;;;;;77.77;6.33;;;;;;;;;;5065446;28;20470;-67
2024/03/30 13:17:37;;;;;;;71.83;6.53;;;;;;;;;;5073947;28;20468;-67
2024/03/30 13:20:08;;;;;;;72.07;6.50;;;;;;;;;;5053886;28;20582;-67
2024/03/30 13:22:39;;;;;;;71.53;5.20;;;;;;;;;;5052815;28;20888;-67
2024/03/30 13:25:07;;;;;;;69.73;5.83;;;;;;;;;;5052715;28;20570;-67
2024/03/30 13:27:33;;;;;;;78.77;6.37;;;;;;;;;;5053379;28;21047;-68
2024/03/30 13:30:02;;;;;;;73.90;5.87;;;;;;;;;;5052885;28;20444;-67
2024/03/30 13:32:28;;;;;;;66.70;5.53;;;;;;;;;;5053090;28;20445;-68
2024/03/30 13:34:55;;;;;;;72.33;5.63;;;;;;;;;;5052958;28;20452;-68
2024/03/30 13:37:22;;;;;;;66.67;5.23;;;;;;;;;;5053494;28;20449;-67
2024/03/30 13:39:48;;;;;;;69.30;6.23;;;;;;;;;;5053180;28;20457;-67
2024/03/30 13:42:15;;;;;;;66.80;5.07;;;;;;;;;;5072961;28;20566;-67
2024/03/30 13:44:41;;;;;;;67.77;5.37;;;;;;;;;;5072948;28;20451;-67
2024/03/30 13:47:10;;;;;;;62.47;4.80;;;;;;;;;;5072931;28;20446;-67
2024/03/30 13:49:36;;;;;;;84.33;5.70;;;;;;;;;;5072518;28;20478;-67
2024/03/30 13:52:03;;;;;;;71.57;5.20;;;;;;;;;;5072748;28;20535;-67
2024/03/30 13:54:29;;;;;;;74.40;5.30;;;;;;;;;;5073021;28;20452;-67
2024/03/30 13:56:58;;;;;;;70.33;6.10;;;;;;;;;;5072980;28;20831;-67
2024/03/30 13:59:24;;;;;;;68.87;6.03;;;;;;;;;;5072380;28;20467;-67
2024/03/30 14:01:51;;;;;;;66.53;5.53;;;;;;;;;;5072516;28;20476;-67
2024/03/30 14:04:18;;;;;;;66.20;6.03;;;;;;;;;;5072552;28;20920;-67
2024/03/30 14:06:45;;;;;;;72.60;4.10;;;;;;;;;;5072681;28;20479;-67
2024/03/30 14:09:12;;;;;;;67.87;5.90;;;;;;;;;;5072028;28;20470;-67
2024/03/30 14:11:39;;;;;;;67.83;4.30;;;;;;;;;;5072494;28;20451;-68
2024/03/30 14:14:05;;;;;;;67.30;4.80;;;;;;;;;;5072412;28;20443;-67
2024/03/30 14:16:33;;;;;;;66.27;4.40;;;;;;;;;;5072343;28;20456;-68
2024/03/30 14:18:59;;;;;;;64.40;4.73;;;;;;;;;;5071905;28;20507;-68
2024/03/30 14:21:27;;;;;;;65.93;5.13;;;;;;;;;;5072275;28;20488;-68
2024/03/30 14:23:54;;;;;;;69.33;5.60;;;;;;;;;;5054946;28;20457;-68
2024/03/30 14:26:21;;;;;;;76.80;6.43;;;;;;;;;;5056993;28;20452;-68
2024/03/30 14:28:47;;;;;;;71.30;6.20;;;;;;;;;;5072034;28;20478;-68
2024/03/30 14:31:14;;;;;;;65.30;4.20;;;;;;;;;;5071751;28;20973;-68
2024/03/30 14:33:41;;;;;;;70.50;5.43;;;;;;;;;;5072125;28;20454;-68